sensor_id;sensor_type;location;lat;lon;timestamp;P1;P2;P0
72031;PMS5003;49185;42.320;23.198;2023-05-10T00:01:20;1.00;1.00;0.00
72031;PMS5003;49185;42.320;23.198;2023-05-10T00:03:45;0.00;0.00;0.00
72031;PMS5003;49185;42.320;23.198;2023-05-10T00:06:12;1.25;1.25;0.00
72031;PMS5003;49185;42.320;23.198;2023-05-10T00:08:37;0.00;0.00;0.00
72031;PMS5003;49185;42.320;23.198;2023-05-10T00:11:03;1.00;0.00;0.00
72031;PMS5003;49185;42.320;23.198;2023-05-10T00:13:28;0.33;0.00;0.00
72031;PMS5003;49185;42.320;23.198;2023-05-10T00:15:54;1.00;0.00;0.00
72031;PMS5003;49185;42.320;23.198;2023-05-10T00:18:19;2.00;1.00;0.00
72031;PMS5003;49185;42.320;23.198;2023-05-10T00:20:44;1.00;1.00;0.00
72031;PMS5003;49185;42.320;23.198;2023-05-10T00:23:10;2.00;1.00;0.00
72031;PMS5003;49185;42.320;23.198;2023-05-10T00:25:35;1.00;1.00;0.00
72031;PMS5003;49185;42.320;23.198;2023-05-10T00:28:01;1.00;1.00;0.00
72031;PMS5003;49185;42.320;23.198;2023-05-10T00:30:27;4.00;2.00;0.00
72031;PMS5003;49185;42.320;23.198;2023-05-10T00:32:52;3.00;2.67;0.00
72031;PMS5003;49185;42.320;23.198;2023-05-10T00:35:17;4.00;2.67;0.00
72031;PMS5003;49185;42.320;23.198;2023-05-10T00:37:43;3.00;2.00;0.00
72031;PMS5003;49185;42.320;23.198;2023-05-10T00:40:08;2.00;2.00;0.00
72031;PMS5003;49185;42.320;23.198;2023-05-10T00:42:34;2.33;1.33;0.00
72031;PMS5003;49185;42.320;23.198;2023-05-10T00:44:59;3.00;3.00;0.00
72031;PMS5003;49185;42.320;23.198;2023-05-10T00:47:25;0.00;0.00;0.00
72031;PMS5003;49185;42.320;23.198;2023-05-10T00:49:50;1.00;0.00;0.00
72031;PMS5003;49185;42.320;23.198;2023-05-10T00:52:16;1.25;1.00;0.00
72031;PMS5003;49185;42.320;23.198;2023-05-10T00:54:42;0.00;0.00;0.00
72031;PMS5003;49185;42.320;23.198;2023-05-10T00:57:08;0.00;0.00;0.00
72031;PMS5003;49185;42.320;23.198;2023-05-10T00:59:33;0.00;0.00;0.00
72031;PMS5003;49185;42.320;23.198;2023-05-10T01:01:59;0.00;0.00;0.00
72031;PMS5003;49185;42.320;23.198;2023-05-10T01:04:24;0.00;0.00;0.00
72031;PMS5003;49185;42.320;23.198;2023-05-10T01:06:50;0.00;0.00;0.00
72031;PMS5003;49185;42.320;23.198;2023-05-10T01:09:19;0.25;0.00;0.00
72031;PMS5003;49185;42.320;23.198;2023-05-10T01:11:46;1.00;0.00;0.00
72031;PMS5003;49185;42.320;23.198;2023-05-10T01:14:13;0.00;0.00;0.00
72031;PMS5003;49185;42.320;23.198;2023-05-10T01:16:42;0.00;0.00;0.00
72031;PMS5003;49185;42.320;23.198;2023-05-10T01:19:22;1.25;0.00;0.00
72031;PMS5003;49185;42.320;23.198;2023-05-10T01:32:52;0.00;0.00;0.00
72031;PMS5003;49185;42.320;23.198;2023-05-10T01:36:03;0.00;0.00;0.00
72031;PMS5003;49185;42.320;23.198;2023-05-10T01:38:38;0.00;0.00;0.00
72031;PMS5003;49185;42.320;23.198;2023-05-10T01:43:53;0.00;0.00;0.00
72031;PMS5003;49185;42.320;23.198;2023-05-10T01:46:31;0.00;0.00;0.00
72031;PMS5003;49185;42.320;23.198;2023-05-10T01:49:00;0.00;0.00;0.00
72031;PMS5003;49185;42.320;23.198;2023-05-10T01:51:28;0.00;0.00;0.00
72031;PMS5003;49185;42.320;23.198;2023-05-10T01:54:01;0.00;0.00;0.00
72031;PMS5003;49185;42.320;23.198;2023-05-10T01:56:30;1.00;1.00;0.00
72031;PMS5003;49185;42.320;23.198;2023-05-10T01:58:59;1.00;1.00;0.00
72031;PMS5003;49185;42.320;23.198;2023-05-10T02:01:25;0.00;0.00;0.00
72031;PMS5003;49185;42.320;23.198;2023-05-10T02:03:52;0.00;0.00;0.00
72031;PMS5003;49185;42.320;23.198;2023-05-10T02:06:20;1.00;1.00;0.00
72031;PMS5003;49185;42.320;23.198;2023-05-10T02:08:47;0.00;0.00;0.00
72031;PMS5003;49185;42.320;23.198;2023-05-10T02:11:15;0.00;0.00;0.00
72031;PMS5003;49185;42.320;23.198;2023-05-10T02:13:43;0.00;0.00;0.00
72031;PMS5003;49185;42.320;23.198;2023-05-10T02:16:10;1.25;1.00;0.00
72031;PMS5003;49185;42.320;23.198;2023-05-10T02:18:38;0.00;0.00;0.00
72031;PMS5003;49185;42.320;23.198;2023-05-10T02:21:06;1.00;0.75;0.00
72031;PMS5003;49185;42.320;23.198;2023-05-10T02:23:33;1.00;1.00;0.00
72031;PMS5003;49185;42.320;23.198;2023-05-10T02:25:59;3.50;1.75;0.00
72031;PMS5003;49185;42.320;23.198;2023-05-10T02:28:26;2.00;2.00;0.00
72031;PMS5003;49185;42.320;23.198;2023-05-10T02:30:53;2.25;2.25;0.00
72031;PMS5003;49185;42.320;23.198;2023-05-10T02:33:20;2.00;2.00;0.00
72031;PMS5003;49185;42.320;23.198;2023-05-10T02:35:46;1.75;1.75;0.00
72031;PMS5003;49185;42.320;23.198;2023-05-10T02:38:14;2.25;2.25;0.00
72031;PMS5003;49185;42.320;23.198;2023-05-10T02:40:40;2.00;2.00;0.00
72031;PMS5003;49185;42.320;23.198;2023-05-10T02:43:07;1.00;1.00;0.00
72031;PMS5003;49185;42.320;23.198;2023-05-10T02:45:37;2.00;2.00;0.00
72031;PMS5003;49185;42.320;23.198;2023-05-10T02:48:03;2.00;2.00;0.00
72031;PMS5003;49185;42.320;23.198;2023-05-10T02:50:29;2.00;2.00;0.00
72031;PMS5003;49185;42.320;23.198;2023-05-10T02:53:01;2.00;2.00;0.00
72031;PMS5003;49185;42.320;23.198;2023-05-10T02:55:32;3.00;3.00;0.00
72031;PMS5003;49185;42.320;23.198;2023-05-10T02:58:04;2.00;2.00;0.00
72031;PMS5003;49185;42.320;23.198;2023-05-10T03:00:29;2.33;2.33;0.00
72031;PMS5003;49185;42.320;23.198;2023-05-10T03:02:55;3.00;3.00;0.00
72031;PMS5003;49185;42.320;23.198;2023-05-10T03:05:20;2.00;2.00;0.00
72031;PMS5003;49185;42.320;23.198;2023-05-10T03:07:46;3.00;2.33;0.00
72031;PMS5003;49185;42.320;23.198;2023-05-10T03:10:12;4.00;3.00;0.00
72031;PMS5003;49185;42.320;23.198;2023-05-10T03:13:21;3.00;2.75;0.00
72031;PMS5003;49185;42.320;23.198;2023-05-10T03:15:56;2.00;2.00;0.00
72031;PMS5003;49185;42.320;23.198;2023-05-10T03:18:29;4.00;3.00;0.00
72031;PMS5003;49185;42.320;23.198;2023-05-10T03:21:02;6.00;5.00;0.00
72031;PMS5003;49185;42.320;23.198;2023-05-10T03:26:05;2.75;1.25;0.00
72031;PMS5003;49185;42.320;23.198;2023-05-10T03:28:33;3.25;1.75;0.00
72031;PMS5003;49185;42.320;23.198;2023-05-10T03:30:59;3.75;3.75;0.00
72031;PMS5003;49185;42.320;23.198;2023-05-10T03:33:25;4.00;3.75;0.00
72031;PMS5003;49185;42.320;23.198;2023-05-10T03:35:51;3.00;3.00;0.00
72031;PMS5003;49185;42.320;23.198;2023-05-10T03:38:16;3.00;3.00;0.00
72031;PMS5003;49185;42.320;23.198;2023-05-10T03:40:41;4.00;3.00;0.00
72031;PMS5003;49185;42.320;23.198;2023-05-10T03:43:07;2.00;2.00;0.00
72031;PMS5003;49185;42.320;23.198;2023-05-10T03:45:32;2.33;1.00;0.00
72031;PMS5003;49185;42.320;23.198;2023-05-10T03:47:58;1.67;1.67;0.00
72031;PMS5003;49185;42.320;23.198;2023-05-10T03:50:23;5.00;3.00;0.00
72031;PMS5003;49185;42.320;23.198;2023-05-10T03:52:49;3.00;3.00;0.00
72031;PMS5003;49185;42.320;23.198;2023-05-10T03:55:15;4.00;4.00;0.00
72031;PMS5003;49185;42.320;23.198;2023-05-10T03:57:40;3.25;3.25;0.00
72031;PMS5003;49185;42.320;23.198;2023-05-10T04:00:06;2.00;1.00;0.00
72031;PMS5003;49185;42.320;23.198;2023-05-10T04:02:32;5.00;3.00;0.00
72031;PMS5003;49185;42.320;23.198;2023-05-10T04:04:57;3.33;2.67;0.00
72031;PMS5003;49185;42.320;23.198;2023-05-10T04:07:22;5.00;5.00;1.00
72031;PMS5003;49185;42.320;23.198;2023-05-10T04:09:48;3.67;3.33;1.00
72031;PMS5003;49185;42.320;23.198;2023-05-10T04:12:13;4.00;4.00;1.00
72031;PMS5003;49185;42.320;23.198;2023-05-10T04:14:38;6.00;4.00;0.00
72031;PMS5003;49185;42.320;23.198;2023-05-10T04:17:04;5.67;4.00;1.00
72031;PMS5003;49185;42.320;23.198;2023-05-10T04:19:30;6.00;6.00;1.00
72031;PMS5003;49185;42.320;23.198;2023-05-10T04:21:56;6.00;4.00;2.00
72031;PMS5003;49185;42.320;23.198;2023-05-10T04:24:21;6.00;5.00;1.00
72031;PMS5003;49185;42.320;23.198;2023-05-10T04:26:47;4.67;4.00;1.00
72031;PMS5003;49185;42.320;23.198;2023-05-10T04:29:12;6.67;6.33;2.00
72031;PMS5003;49185;42.320;23.198;2023-05-10T04:31:37;6.33;6.00;3.00
72031;PMS5003;49185;42.320;23.198;2023-05-10T04:34:03;6.33;6.33;2.00
72031;PMS5003;49185;42.320;23.198;2023-05-10T04:36:28;5.33;5.33;1.00
72031;PMS5003;49185;42.320;23.198;2023-05-10T04:38:54;5.00;5.00;0.00
72031;PMS5003;49185;42.320;23.198;2023-05-10T04:41:19;6.50;6.00;0.00
72031;PMS5003;49185;42.320;23.198;2023-05-10T04:43:45;7.00;6.33;1.00
72031;PMS5003;49185;42.320;23.198;2023-05-10T04:46:10;4.00;4.00;1.00
72031;PMS5003;49185;42.320;23.198;2023-05-10T04:48:36;7.00;6.33;1.00
72031;PMS5003;49185;42.320;23.198;2023-05-10T04:51:01;7.00;6.00;1.00
72031;PMS5003;49185;42.320;23.198;2023-05-10T04:53:26;6.33;6.33;2.00
72031;PMS5003;49185;42.320;23.198;2023-05-10T04:55:52;4.00;4.00;1.00
72031;PMS5003;49185;42.320;23.198;2023-05-10T04:58:17;5.00;5.00;2.00
72031;PMS5003;49185;42.320;23.198;2023-05-10T05:00:43;4.00;3.00;1.00
72031;PMS5003;49185;42.320;23.198;2023-05-10T05:03:08;5.33;4.00;0.00
72031;PMS5003;49185;42.320;23.198;2023-05-10T05:05:33;5.00;4.00;0.00
72031;PMS5003;49185;42.320;23.198;2023-05-10T05:07:59;5.67;5.67;0.33
72031;PMS5003;49185;42.320;23.198;2023-05-10T05:10:24;7.00;5.67;3.00
72031;PMS5003;49185;42.320;23.198;2023-05-10T05:12:50;4.00;4.00;1.00
72031;PMS5003;49185;42.320;23.198;2023-05-10T05:15:15;3.67;3.67;1.00
72031;PMS5003;49185;42.320;23.198;2023-05-10T05:17:40;6.00;6.00;1.00
72031;PMS5003;49185;42.320;23.198;2023-05-10T05:20:06;4.33;4.33;0.00
72031;PMS5003;49185;42.320;23.198;2023-05-10T05:22:32;6.00;6.00;1.00
72031;PMS5003;49185;42.320;23.198;2023-05-10T05:24:57;6.00;5.67;1.00
72031;PMS5003;49185;42.320;23.198;2023-05-10T05:27:23;6.00;6.00;1.00
72031;PMS5003;49185;42.320;23.198;2023-05-10T05:29:55;7.00;4.00;1.00
72031;PMS5003;49185;42.320;23.198;2023-05-10T05:32:22;5.00;5.00;1.00
72031;PMS5003;49185;42.320;23.198;2023-05-10T05:34:48;5.00;4.00;1.00
72031;PMS5003;49185;42.320;23.198;2023-05-10T05:37:17;7.00;7.00;2.00
72031;PMS5003;49185;42.320;23.198;2023-05-10T05:39:43;7.00;5.00;2.00
72031;PMS5003;49185;42.320;23.198;2023-05-10T05:42:10;5.00;5.00;2.00
72031;PMS5003;49185;42.320;23.198;2023-05-10T05:44:36;4.75;4.75;2.00
72031;PMS5003;49185;42.320;23.198;2023-05-10T05:47:01;4.67;4.33;0.00
72031;PMS5003;49185;42.320;23.198;2023-05-10T05:49:27;6.67;5.33;0.00
72031;PMS5003;49185;42.320;23.198;2023-05-10T05:51:52;6.00;5.00;0.00
72031;PMS5003;49185;42.320;23.198;2023-05-10T05:54:18;4.00;4.00;0.00
72031;PMS5003;49185;42.320;23.198;2023-05-10T05:56:43;7.33;7.00;2.00
72031;PMS5003;49185;42.320;23.198;2023-05-10T05:59:09;6.00;5.00;2.00
72031;PMS5003;49185;42.320;23.198;2023-05-10T06:01:34;6.00;5.25;0.50
72031;PMS5003;49185;42.320;23.198;2023-05-10T06:04:00;3.00;3.00;0.00
72031;PMS5003;49185;42.320;23.198;2023-05-10T06:06:25;5.00;5.00;0.00
72031;PMS5003;49185;42.320;23.198;2023-05-10T06:08:51;5.67;5.00;0.00
72031;PMS5003;49185;42.320;23.198;2023-05-10T06:11:16;4.00;4.00;0.00
72031;PMS5003;49185;42.320;23.198;2023-05-10T06:13:41;4.00;4.00;1.00
72031;PMS5003;49185;42.320;23.198;2023-05-10T06:16:07;6.00;5.00;0.00
72031;PMS5003;49185;42.320;23.198;2023-05-10T06:18:33;7.00;5.00;0.00
72031;PMS5003;49185;42.320;23.198;2023-05-10T06:20:58;6.00;6.00;0.00
72031;PMS5003;49185;42.320;23.198;2023-05-10T06:23:24;4.00;3.00;0.00
72031;PMS5003;49185;42.320;23.198;2023-05-10T06:25:49;4.33;4.33;0.00
72031;PMS5003;49185;42.320;23.198;2023-05-10T06:28:14;5.33;5.00;0.00
72031;PMS5003;49185;42.320;23.198;2023-05-10T06:30:40;6.33;6.00;0.00
72031;PMS5003;49185;42.320;23.198;2023-05-10T06:33:05;6.00;5.33;0.00
72031;PMS5003;49185;42.320;23.198;2023-05-10T06:35:31;4.00;4.00;0.00
72031;PMS5003;49185;42.320;23.198;2023-05-10T06:37:56;3.00;3.00;0.00
72031;PMS5003;49185;42.320;23.198;2023-05-10T06:40:21;6.67;4.33;0.00
72031;PMS5003;49185;42.320;23.198;2023-05-10T06:42:47;6.33;6.33;2.00
72031;PMS5003;49185;42.320;23.198;2023-05-10T06:45:13;8.00;7.00;2.50
72031;PMS5003;49185;42.320;23.198;2023-05-10T06:47:40;6.00;6.00;2.00
72031;PMS5003;49185;42.320;23.198;2023-05-10T06:50:06;6.25;5.00;1.00
72031;PMS5003;49185;42.320;23.198;2023-05-10T06:52:33;7.50;7.00;1.25
72031;PMS5003;49185;42.320;23.198;2023-05-10T06:54:58;7.00;7.00;3.00
72031;PMS5003;49185;42.320;23.198;2023-05-10T06:57:24;7.00;7.00;3.00
72031;PMS5003;49185;42.320;23.198;2023-05-10T06:59:49;5.33;5.00;2.00
72031;PMS5003;49185;42.320;23.198;2023-05-10T07:02:15;6.00;6.00;2.00
72031;PMS5003;49185;42.320;23.198;2023-05-10T07:04:40;9.00;9.00;4.00
72031;PMS5003;49185;42.320;23.198;2023-05-10T07:07:05;11.00;10.33;4.00
72031;PMS5003;49185;42.320;23.198;2023-05-10T07:09:31;9.50;8.00;2.50
72031;PMS5003;49185;42.320;23.198;2023-05-10T07:11:57;9.67;6.67;2.33
72031;PMS5003;49185;42.320;23.198;2023-05-10T07:14:22;10.00;8.67;3.00
72031;PMS5003;49185;42.320;23.198;2023-05-10T07:16:48;9.00;6.67;2.00
72031;PMS5003;49185;42.320;23.198;2023-05-10T07:19:13;8.00;8.00;3.00
72031;PMS5003;49185;42.320;23.198;2023-05-10T07:21:39;8.00;5.67;2.00
72031;PMS5003;49185;42.320;23.198;2023-05-10T07:24:04;8.00;6.00;2.00
72031;PMS5003;49185;42.320;23.198;2023-05-10T07:26:30;8.33;6.00;2.00
72031;PMS5003;49185;42.320;23.198;2023-05-10T07:28:55;8.33;7.67;2.00
72031;PMS5003;49185;42.320;23.198;2023-05-10T07:31:21;8.00;8.00;2.00
72031;PMS5003;49185;42.320;23.198;2023-05-10T07:33:46;9.00;8.00;2.00
72031;PMS5003;49185;42.320;23.198;2023-05-10T07:36:11;6.33;6.33;1.00
72031;PMS5003;49185;42.320;23.198;2023-05-10T07:38:37;9.00;7.67;3.00
72031;PMS5003;49185;42.320;23.198;2023-05-10T07:41:02;11.33;9.67;3.00
72031;PMS5003;49185;42.320;23.198;2023-05-10T07:43:28;9.33;9.00;3.33
72031;PMS5003;49185;42.320;23.198;2023-05-10T07:45:53;9.00;6.00;3.00
72031;PMS5003;49185;42.320;23.198;2023-05-10T07:48:18;6.67;6.67;2.00
72031;PMS5003;49185;42.320;23.198;2023-05-10T07:50:44;8.00;7.00;2.00
72031;PMS5003;49185;42.320;23.198;2023-05-10T07:53:10;9.00;7.33;3.00
72031;PMS5003;49185;42.320;23.198;2023-05-10T07:55:35;8.00;6.00;1.00
72031;PMS5003;49185;42.320;23.198;2023-05-10T07:58:01;6.00;6.00;1.00
72031;PMS5003;49185;42.320;23.198;2023-05-10T08:00:26;8.00;8.00;3.00
72031;PMS5003;49185;42.320;23.198;2023-05-10T08:02:52;9.00;6.00;3.00
72031;PMS5003;49185;42.320;23.198;2023-05-10T08:05:17;11.33;9.00;2.67
72031;PMS5003;49185;42.320;23.198;2023-05-10T08:07:42;8.00;8.00;3.00
72031;PMS5003;49185;42.320;23.198;2023-05-10T08:10:08;8.00;7.00;2.00
72031;PMS5003;49185;42.320;23.198;2023-05-10T08:12:34;7.00;7.00;3.00
72031;PMS5003;49185;42.320;23.198;2023-05-10T08:15:00;8.50;7.75;3.00
72031;PMS5003;49185;42.320;23.198;2023-05-10T08:17:25;9.00;8.00;3.00
72031;PMS5003;49185;42.320;23.198;2023-05-10T08:19:51;9.00;8.00;3.00
72031;PMS5003;49185;42.320;23.198;2023-05-10T08:22:17;10.25;10.00;4.25
72031;PMS5003;49185;42.320;23.198;2023-05-10T08:24:42;13.00;12.33;4.67
72031;PMS5003;49185;42.320;23.198;2023-05-10T08:27:08;12.00;11.33;4.00
72031;PMS5003;49185;42.320;23.198;2023-05-10T08:29:33;16.50;14.50;5.00
72031;PMS5003;49185;42.320;23.198;2023-05-10T08:31:59;14.33;12.33;4.00
72031;PMS5003;49185;42.320;23.198;2023-05-10T08:34:24;8.00;7.00;2.00
72031;PMS5003;49185;42.320;23.198;2023-05-10T08:36:50;7.33;6.00;4.00
72031;PMS5003;49185;42.320;23.198;2023-05-10T08:39:15;9.00;7.00;3.00
72031;PMS5003;49185;42.320;23.198;2023-05-10T08:41:41;10.00;8.00;2.33
72031;PMS5003;49185;42.320;23.198;2023-05-10T08:44:09;11.00;7.50;3.50
72031;PMS5003;49185;42.320;23.198;2023-05-10T08:46:35;11.50;10.00;4.00
72031;PMS5003;49185;42.320;23.198;2023-05-10T08:49:02;14.00;11.00;4.00
72031;PMS5003;49185;42.320;23.198;2023-05-10T08:51:30;14.50;12.00;5.00
72031;PMS5003;49185;42.320;23.198;2023-05-10T08:54:01;14.00;11.50;3.00
72031;PMS5003;49185;42.320;23.198;2023-05-10T08:56:28;11.00;9.00;2.75
72031;PMS5003;49185;42.320;23.198;2023-05-10T08:58:53;10.33;9.00;2.00
72031;PMS5003;49185;42.320;23.198;2023-05-10T09:01:18;11.33;10.33;4.00
72031;PMS5003;49185;42.320;23.198;2023-05-10T09:03:46;12.00;10.25;4.75
72031;PMS5003;49185;42.320;23.198;2023-05-10T09:06:12;12.25;10.50;5.00
72031;PMS5003;49185;42.320;23.198;2023-05-10T09:08:38;14.25;12.25;5.75
72031;PMS5003;49185;42.320;23.198;2023-05-10T09:11:03;14.50;13.00;4.00
72031;PMS5003;49185;42.320;23.198;2023-05-10T09:13:30;15.00;13.50;4.75
72031;PMS5003;49185;42.320;23.198;2023-05-10T09:15:56;16.00;14.00;4.00
72031;PMS5003;49185;42.320;23.198;2023-05-10T09:18:23;13.00;11.00;4.00
72031;PMS5003;49185;42.320;23.198;2023-05-10T09:20:48;13.67;10.33;4.67
72031;PMS5003;49185;42.320;23.198;2023-05-10T09:23:14;15.50;10.00;4.00
72031;PMS5003;49185;42.320;23.198;2023-05-10T09:25:41;13.00;9.00;3.67
72031;PMS5003;49185;42.320;23.198;2023-05-10T09:28:07;14.00;10.25;5.00
72031;PMS5003;49185;42.320;23.198;2023-05-10T09:30:33;11.50;10.00;3.00
72031;PMS5003;49185;42.320;23.198;2023-05-10T09:32:59;15.00;11.67;3.33
72031;PMS5003;49185;42.320;23.198;2023-05-10T09:35:26;14.50;12.00;3.25
72031;PMS5003;49185;42.320;23.198;2023-05-10T09:37:54;13.00;12.50;4.00
72031;PMS5003;49185;42.320;23.198;2023-05-10T09:40:20;13.75;12.50;5.50
72031;PMS5003;49185;42.320;23.198;2023-05-10T09:43:06;15.50;13.00;4.00
72031;PMS5003;49185;42.320;23.198;2023-05-10T09:45:34;15.00;12.25;4.00
72031;PMS5003;49185;42.320;23.198;2023-05-10T09:48:00;16.00;14.00;5.00
72031;PMS5003;49185;42.320;23.198;2023-05-10T09:50:27;16.00;14.00;5.00
72031;PMS5003;49185;42.320;23.198;2023-05-10T09:53:00;14.50;11.75;5.00
72031;PMS5003;49185;42.320;23.198;2023-05-10T09:58:05;16.00;13.75;5.75
72031;PMS5003;49185;42.320;23.198;2023-05-10T10:00:35;14.25;13.00;5.75
72031;PMS5003;49185;42.320;23.198;2023-05-10T10:03:02;17.50;14.00;5.00
72031;PMS5003;49185;42.320;23.198;2023-05-10T10:05:30;15.50;12.50;4.25
72031;PMS5003;49185;42.320;23.198;2023-05-10T10:07:56;18.00;14.00;4.75
72031;PMS5003;49185;42.320;23.198;2023-05-10T10:10:24;20.50;18.50;7.00
72031;PMS5003;49185;42.320;23.198;2023-05-10T10:12:50;20.00;19.00;7.00
72031;PMS5003;49185;42.320;23.198;2023-05-10T10:15:16;18.25;17.50;5.75
72031;PMS5003;49185;42.320;23.198;2023-05-10T10:17:42;17.00;15.25;6.25
72031;PMS5003;49185;42.320;23.198;2023-05-10T10:20:09;18.50;16.25;7.25
72031;PMS5003;49185;42.320;23.198;2023-05-10T10:22:34;16.25;15.25;5.75
72031;PMS5003;49185;42.320;23.198;2023-05-10T10:25:02;17.25;15.00;5.00
72031;PMS5003;49185;42.320;23.198;2023-05-10T10:35:31;19.00;15.00;7.00
72031;PMS5003;49185;42.320;23.198;2023-05-10T10:37:57;16.00;15.00;6.00
72031;PMS5003;49185;42.320;23.198;2023-05-10T10:42:48;15.00;12.67;4.33
72031;PMS5003;49185;42.320;23.198;2023-05-10T10:45:13;17.00;15.00;6.33
72031;PMS5003;49185;42.320;23.198;2023-05-10T10:47:39;17.00;15.00;6.00
72031;PMS5003;49185;42.320;23.198;2023-05-10T10:50:05;17.00;16.00;6.00
72031;PMS5003;49185;42.320;23.198;2023-05-10T10:52:32;16.00;16.00;5.00
72031;PMS5003;49185;42.320;23.198;2023-05-10T11:05:23;16.00;14.25;5.00
72031;PMS5003;49185;42.320;23.198;2023-05-10T11:07:56;17.00;17.00;5.00
72031;PMS5003;49185;42.320;23.198;2023-05-10T11:10:23;17.00;16.00;5.00
72031;PMS5003;49185;42.320;23.198;2023-05-10T11:13:06;16.50;16.00;6.75
72031;PMS5003;49185;42.320;23.198;2023-05-10T11:15:39;18.00;17.00;7.00
72031;PMS5003;49185;42.320;23.198;2023-05-10T11:18:18;17.00;17.00;8.00
72031;PMS5003;49185;42.320;23.198;2023-05-10T11:23:31;19.50;18.50;8.00
72031;PMS5003;49185;42.320;23.198;2023-05-10T11:26:12;19.00;19.00;6.00
72031;PMS5003;49185;42.320;23.198;2023-05-10T11:28:45;19.00;16.75;6.00
72031;PMS5003;49185;42.320;23.198;2023-05-10T11:31:14;19.00;16.50;6.00
72031;PMS5003;49185;42.320;23.198;2023-05-10T11:33:47;19.75;17.00;7.00
72031;PMS5003;49185;42.320;23.198;2023-05-10T11:36:15;20.25;17.25;7.00
72031;PMS5003;49185;42.320;23.198;2023-05-10T11:39:00;21.25;18.50;8.00
72031;PMS5003;49185;42.320;23.198;2023-05-10T11:41:27;22.00;20.00;8.00
72031;PMS5003;49185;42.320;23.198;2023-05-10T11:43:54;21.75;19.00;9.00
72031;PMS5003;49185;42.320;23.198;2023-05-10T11:46:20;20.00;18.25;8.00
72031;PMS5003;49185;42.320;23.198;2023-05-10T11:48:51;21.25;19.50;8.00
72031;PMS5003;49185;42.320;23.198;2023-05-10T11:51:22;20.75;19.75;8.25
72031;PMS5003;49185;42.320;23.198;2023-05-10T11:53:49;23.25;22.75;10.50
72031;PMS5003;49185;42.320;23.198;2023-05-10T11:56:17;22.75;20.00;7.00
72031;PMS5003;49185;42.320;23.198;2023-05-10T11:58:42;19.00;19.00;6.00
72031;PMS5003;49185;42.320;23.198;2023-05-10T12:01:08;21.00;20.67;7.00
72031;PMS5003;49185;42.320;23.198;2023-05-10T12:03:34;19.75;19.25;7.50
72031;PMS5003;49185;42.320;23.198;2023-05-10T12:06:01;20.00;19.00;8.00
72031;PMS5003;49185;42.320;23.198;2023-05-10T12:08:28;19.00;19.00;8.00
72031;PMS5003;49185;42.320;23.198;2023-05-10T12:11:03;22.00;20.00;8.00
72031;PMS5003;49185;42.320;23.198;2023-05-10T12:13:37;20.00;18.75;7.50
72031;PMS5003;49185;42.320;23.198;2023-05-10T12:16:12;18.00;17.00;7.00
72031;PMS5003;49185;42.320;23.198;2023-05-10T12:18:45;18.00;17.00;7.00
72031;PMS5003;49185;42.320;23.198;2023-05-10T12:21:13;20.00;19.00;7.00
72031;PMS5003;49185;42.320;23.198;2023-05-10T12:23:40;21.00;18.00;7.00
72031;PMS5003;49185;42.320;23.198;2023-05-10T12:26:06;19.00;18.00;7.00
72031;PMS5003;49185;42.320;23.198;2023-05-10T12:28:32;22.00;20.00;9.00
72031;PMS5003;49185;42.320;23.198;2023-05-10T12:30:58;20.25;20.00;7.00
72031;PMS5003;49185;42.320;23.198;2023-05-10T12:33:24;21.00;18.00;6.50
72031;PMS5003;49185;42.320;23.198;2023-05-10T12:35:54;22.00;19.50;9.00
72031;PMS5003;49185;42.320;23.198;2023-05-10T12:38:59;20.50;17.00;7.00
72031;PMS5003;49185;42.320;23.198;2023-05-10T12:41:12;20.00;18.00;8.50
72031;PMS5003;49185;42.320;23.198;2023-05-10T12:43:38;20.00;18.00;7.00
72031;PMS5003;49185;42.320;23.198;2023-05-10T12:46:05;22.50;19.75;7.75
72031;PMS5003;49185;42.320;23.198;2023-05-10T12:48:31;21.00;18.00;7.00
72031;PMS5003;49185;42.320;23.198;2023-05-10T12:50:56;21.00;19.00;8.00
72031;PMS5003;49185;42.320;23.198;2023-05-10T12:53:22;22.00;22.00;10.67
72031;PMS5003;49185;42.320;23.198;2023-05-10T12:55:47;23.00;21.00;9.33
72031;PMS5003;49185;42.320;23.198;2023-05-10T12:58:13;21.00;20.00;8.00
72031;PMS5003;49185;42.320;23.198;2023-05-10T13:00:39;25.00;25.00;10.50
72031;PMS5003;49185;42.320;23.198;2023-05-10T13:03:04;23.33;23.00;10.00
72031;PMS5003;49185;42.320;23.198;2023-05-10T13:05:30;23.00;23.00;9.00
72031;PMS5003;49185;42.320;23.198;2023-05-10T13:07:59;21.00;21.00;8.00
72031;PMS5003;49185;42.320;23.198;2023-05-10T13:10:24;19.25;18.00;7.00
72031;PMS5003;49185;42.320;23.198;2023-05-10T13:12:50;22.00;20.00;9.00
72031;PMS5003;49185;42.320;23.198;2023-05-10T13:15:16;21.00;19.00;8.00
72031;PMS5003;49185;42.320;23.198;2023-05-10T13:17:42;19.00;18.00;8.00
72031;PMS5003;49185;42.320;23.198;2023-05-10T13:20:07;18.00;18.00;6.00
72031;PMS5003;49185;42.320;23.198;2023-05-10T13:22:33;19.25;18.25;7.50
72031;PMS5003;49185;42.320;23.198;2023-05-10T13:24:58;20.33;19.33;10.67
72031;PMS5003;49185;42.320;23.198;2023-05-10T13:27:24;20.67;20.67;9.33
72031;PMS5003;49185;42.320;23.198;2023-05-10T13:29:49;18.00;17.00;7.00
72031;PMS5003;49185;42.320;23.198;2023-05-10T13:32:15;19.00;19.00;7.00
72031;PMS5003;49185;42.320;23.198;2023-05-10T13:34:40;18.33;18.00;7.00
72031;PMS5003;49185;42.320;23.198;2023-05-10T13:37:06;22.00;19.00;9.00
72031;PMS5003;49185;42.320;23.198;2023-05-10T13:39:31;22.00;19.33;8.00
72031;PMS5003;49185;42.320;23.198;2023-05-10T13:41:56;22.33;20.33;8.67
72031;PMS5003;49185;42.320;23.198;2023-05-10T13:44:22;18.33;17.33;7.00
72031;PMS5003;49185;42.320;23.198;2023-05-10T13:46:47;19.00;18.00;7.00
72031;PMS5003;49185;42.320;23.198;2023-05-10T13:49:13;21.33;18.33;9.00
72031;PMS5003;49185;42.320;23.198;2023-05-10T13:51:38;18.33;18.33;8.00
72031;PMS5003;49185;42.320;23.198;2023-05-10T13:54:03;17.00;17.00;6.00
72031;PMS5003;49185;42.320;23.198;2023-05-10T13:56:34;17.33;16.33;6.00
72031;PMS5003;49185;42.320;23.198;2023-05-10T13:59:00;18.50;18.00;8.00
72031;PMS5003;49185;42.320;23.198;2023-05-10T14:01:25;18.00;16.00;6.00
72031;PMS5003;49185;42.320;23.198;2023-05-10T14:03:51;21.00;18.00;7.67
72031;PMS5003;49185;42.320;23.198;2023-05-10T14:06:16;18.33;18.00;7.00
72031;PMS5003;49185;42.320;23.198;2023-05-10T14:08:42;20.00;17.00;6.67
72031;PMS5003;49185;42.320;23.198;2023-05-10T14:11:07;20.00;20.00;9.33
72031;PMS5003;49185;42.320;23.198;2023-05-10T14:13:32;23.67;23.67;11.00
72031;PMS5003;49185;42.320;23.198;2023-05-10T14:16:16;24.50;24.00;10.50
72031;PMS5003;49185;42.320;23.198;2023-05-10T14:18:42;22.00;20.00;10.00
72031;PMS5003;49185;42.320;23.198;2023-05-10T14:21:07;18.33;18.33;8.00
72031;PMS5003;49185;42.320;23.198;2023-05-10T14:23:33;19.33;18.33;7.00
72031;PMS5003;49185;42.320;23.198;2023-05-10T14:25:58;18.00;17.00;5.00
72031;PMS5003;49185;42.320;23.198;2023-05-10T14:28:24;17.00;17.00;4.00
72031;PMS5003;49185;42.320;23.198;2023-05-10T14:30:49;15.33;12.33;4.00
72031;PMS5003;49185;42.320;23.198;2023-05-10T14:33:16;16.00;12.00;6.00
72031;PMS5003;49185;42.320;23.198;2023-05-10T14:35:41;15.00;14.50;6.00
72031;PMS5003;49185;42.320;23.198;2023-05-10T14:38:07;15.33;13.00;5.00
72031;PMS5003;49185;42.320;23.198;2023-05-10T14:40:32;16.33;16.00;4.67